createdAt,value
2022-09-24T00:01:32.800Z,11.45
2022-09-24T00:04:05.129Z,14.27
2022-09-24T00:06:38.490Z,9.48
2022-09-24T00:09:05.257Z,10.35
2022-09-24T00:11:32.041Z,11.63
2022-09-24T00:13:59.676Z,13.25
2022-09-24T00:16:30.452Z,8.98
2022-09-24T00:18:59.315Z,11.02
2022-09-24T00:21:28.820Z,8.20
2022-09-24T00:23:58.112Z,11.30
2022-09-24T00:26:43.681Z,8.20
2022-09-24T00:29:12.049Z,11.18
2022-09-24T00:31:39.251Z,9.32
2022-09-24T00:34:06.146Z,10.30
2022-09-24T00:36:33.057Z,12.30
2022-09-24T00:39:00.563Z,6.45
2022-09-24T00:41:33.294Z,9.40
2022-09-24T00:44:00.442Z,9.00
2022-09-24T00:46:30.058Z,7.55
2022-09-24T00:49:05.630Z,6.70
2022-09-24T00:51:33.589Z,10.40
2022-09-24T00:54:06.426Z,7.20
2022-09-24T00:56:36.497Z,8.52
2022-09-24T00:59:05.060Z,9.18
2022-09-24T01:01:32.181Z,8.68
2022-09-24T01:04:00.225Z,7.85
2022-09-24T01:06:27.312Z,7.60
2022-09-24T01:08:56.177Z,13.43
2022-09-24T01:11:54.669Z,8.40
2022-09-24T01:14:49.301Z,8.48
2022-09-24T01:17:34.487Z,8.55
2022-09-24T01:20:26.108Z,7.72
2022-09-24T01:23:30.864Z,6.85
2022-09-24T01:26:19.798Z,6.82
2022-09-24T01:28:52.343Z,7.53
2022-09-24T01:31:48.830Z,6.20
2022-09-24T01:34:22.200Z,7.85
2022-09-24T01:36:52.356Z,9.07
2022-09-24T01:39:20.201Z,10.95
2022-09-24T01:41:48.184Z,6.55
2022-09-24T01:44:18.691Z,10.23
2022-09-24T01:46:45.620Z,7.60
2022-09-24T01:49:12.318Z,10.38
2022-09-24T01:51:51.859Z,9.82
2022-09-24T01:54:21.019Z,7.15
2022-09-24T01:57:09.791Z,6.70
2022-09-24T02:00:02.020Z,9.95
2022-09-24T02:02:39.565Z,8.65
2022-09-24T02:05:41.113Z,9.55
2022-09-24T02:08:29.132Z,6.65
2022-09-24T02:11:23.310Z,7.35
2022-09-24T02:13:53.928Z,7.72
2022-09-24T02:16:34.054Z,8.00
2022-09-24T02:19:05.677Z,6.60
2022-09-24T02:21:34.597Z,7.97
2022-09-24T02:24:05.855Z,7.35
2022-09-24T02:26:32.514Z,7.22
2022-09-24T02:28:59.294Z,6.05
2022-09-24T02:31:54.282Z,8.85
2022-09-24T02:34:28.629Z,6.15
2022-09-24T02:37:02.414Z,6.47
2022-09-24T02:39:29.050Z,6.40
2022-09-24T02:41:56.824Z,6.05
2022-09-24T02:44:24.237Z,7.57
2022-09-24T02:46:51.091Z,9.18
2022-09-24T02:49:18.143Z,10.15
2022-09-24T02:51:45.301Z,6.13
2022-09-24T02:54:11.996Z,9.25
2022-09-24T02:56:39.126Z,5.80
2022-09-24T02:59:06.643Z,6.80
2022-09-24T03:01:34.334Z,6.55
2022-09-24T03:04:01.786Z,8.65
2022-09-24T03:06:28.518Z,5.95
2022-09-24T03:08:55.131Z,5.90
2022-09-24T03:11:22.598Z,6.10
2022-09-24T03:13:50.089Z,6.07
2022-09-24T03:16:18.052Z,4.93
2022-09-24T03:18:46.925Z,6.85
2022-09-24T03:21:15.112Z,4.60
2022-09-24T03:23:42.216Z,12.70
2022-09-24T03:26:09.206Z,6.03
2022-09-24T03:28:36.223Z,6.47
2022-09-24T03:31:03.180Z,6.32
2022-09-24T03:33:29.830Z,6.50
2022-09-24T03:36:01.836Z,6.45
2022-09-24T03:38:29.929Z,5.05
2022-09-24T03:40:57.510Z,6.25
2022-09-24T03:43:24.575Z,7.30
2022-09-24T03:45:51.923Z,7.72
2022-09-24T03:48:20.951Z,5.90
2022-09-24T03:50:48.604Z,6.07
2022-09-24T03:53:16.073Z,7.43
2022-09-24T03:55:47.950Z,9.85
2022-09-24T03:58:16.041Z,6.35
2022-09-24T04:00:42.974Z,4.93
2022-09-24T04:03:09.988Z,9.45
2022-09-24T04:05:36.879Z,6.32
2022-09-24T04:08:05.085Z,7.07
2022-09-24T04:10:32.369Z,8.07
2022-09-24T04:12:59.126Z,6.40
2022-09-24T04:15:25.809Z,5.55
2022-09-24T04:17:54.446Z,5.85
2022-09-24T04:20:22.682Z,10.02
2022-09-24T04:22:54.117Z,6.65
2022-09-24T04:25:21.892Z,6.15
2022-09-24T04:27:57.543Z,12.73
2022-09-24T04:30:25.342Z,6.45
2022-09-24T04:32:52.938Z,7.53
2022-09-24T04:35:20.931Z,6.75
2022-09-24T04:37:48.186Z,6.60
2022-09-24T04:40:16.159Z,7.35
2022-09-24T04:42:46.193Z,6.78
2022-09-24T04:45:14.297Z,9.32
2022-09-24T04:47:41.708Z,4.85
2022-09-24T04:50:09.906Z,10.65
2022-09-24T04:52:36.892Z,7.18
2022-09-24T04:55:04.420Z,6.50
2022-09-24T04:57:35.859Z,5.65
2022-09-24T05:00:07.288Z,8.63
2022-09-24T05:02:34.360Z,5.65
2022-09-24T05:05:01.448Z,8.07
2022-09-24T05:07:28.676Z,11.02
2022-09-24T05:09:55.677Z,6.25
2022-09-24T05:12:22.764Z,7.80
2022-09-24T05:14:49.750Z,7.18
2022-09-24T05:17:16.731Z,9.05
2022-09-24T05:19:43.741Z,8.48
2022-09-24T05:22:10.741Z,9.25
2022-09-24T05:24:37.750Z,9.25
2022-09-24T05:27:10.778Z,7.43
2022-09-24T05:29:38.423Z,9.07
2022-09-24T05:32:06.913Z,7.07
2022-09-24T05:34:34.140Z,8.18
2022-09-24T05:37:01.752Z,7.07
2022-09-24T05:39:33.445Z,7.18
2022-09-24T05:42:05.157Z,6.28
2022-09-24T05:44:32.450Z,7.25
2022-09-24T05:46:59.532Z,7.28
2022-09-24T05:49:26.640Z,10.23
2022-09-24T05:51:53.658Z,6.65
2022-09-24T05:54:21.084Z,10.80
2022-09-24T05:56:48.108Z,6.18
2022-09-24T05:59:15.173Z,8.70
2022-09-24T06:01:42.239Z,6.20
2022-09-24T06:04:11.243Z,7.28
2022-09-24T06:06:38.279Z,7.22
2022-09-24T06:09:05.661Z,7.65
2022-09-24T06:11:40.119Z,6.43
2022-09-24T06:14:09.010Z,7.63
2022-09-24T06:16:36.721Z,8.60
2022-09-24T06:19:03.837Z,10.25
2022-09-24T06:21:30.457Z,8.13
2022-09-24T06:23:57.234Z,5.07
2022-09-24T06:26:26.066Z,6.82
2022-09-24T06:28:53.111Z,7.65
2022-09-24T06:31:20.214Z,8.02
2022-09-24T06:33:47.362Z,8.00
2022-09-24T06:36:14.649Z,8.32
2022-09-24T06:38:41.807Z,8.70
2022-09-24T06:41:09.539Z,8.88
2022-09-24T06:43:36.641Z,10.20
2022-09-24T06:46:04.749Z,7.28
2022-09-24T06:48:31.800Z,7.30
2022-09-24T06:50:59.154Z,7.65
2022-09-24T06:53:26.585Z,6.78
2022-09-24T06:58:35.474Z,4.63
2022-09-24T07:01:03.134Z,8.25
2022-09-24T07:03:31.341Z,6.60
2022-09-24T07:06:01.394Z,7.25
2022-09-24T07:08:28.470Z,6.97
2022-09-24T07:10:55.504Z,10.23
2022-09-24T07:13:22.872Z,9.40
2022-09-24T07:15:50.741Z,7.78
2022-09-24T07:18:19.124Z,4.65
2022-09-24T07:20:55.137Z,5.93
2022-09-24T07:23:22.898Z,6.95
2022-09-24T07:25:55.198Z,8.38
2022-09-24T07:28:21.826Z,7.20
2022-09-24T07:30:56.551Z,5.05
2022-09-24T07:33:23.216Z,7.05
2022-09-24T07:35:51.058Z,5.63
2022-09-24T07:38:18.343Z,7.63
2022-09-24T07:40:45.158Z,6.72
2022-09-24T07:43:13.835Z,5.82
2022-09-24T07:45:41.718Z,6.72
2022-09-24T07:48:10.160Z,9.52
2022-09-24T07:50:40.140Z,9.20
2022-09-24T07:53:06.852Z,6.45
2022-09-24T07:55:39.305Z,8.35
2022-09-24T07:58:07.054Z,9.45
2022-09-24T08:00:33.710Z,10.05
2022-09-24T08:03:02.270Z,12.07
2022-09-24T08:05:29.444Z,6.97
2022-09-24T08:07:57.203Z,9.93
2022-09-24T08:10:24.954Z,13.75
2022-09-24T08:12:51.939Z,6.38
2022-09-24T08:15:19.638Z,8.82
2022-09-24T08:17:46.723Z,10.85
2022-09-24T08:20:14.135Z,11.18
2022-09-24T08:22:41.180Z,10.88
2022-09-24T08:25:08.393Z,9.57
2022-09-24T08:27:37.401Z,10.98
2022-09-24T08:30:07.906Z,11.18
2022-09-24T08:32:35.073Z,8.02
2022-09-24T08:35:02.358Z,9.77
2022-09-24T08:37:29.668Z,9.25
2022-09-24T08:39:56.848Z,11.15
2022-09-24T08:42:38.223Z,9.02
2022-09-24T08:45:24.329Z,9.27
2022-09-24T08:47:57.966Z,9.82
2022-09-24T08:50:26.418Z,10.30
2022-09-24T08:52:54.246Z,10.48
2022-09-24T08:55:34.908Z,9.70
2022-09-24T08:58:25.027Z,9.00
2022-09-24T09:01:04.197Z,8.60
2022-09-24T09:03:40.220Z,8.50
2022-09-24T09:06:25.994Z,10.20
2022-09-24T09:09:20.041Z,13.38
2022-09-24T09:11:49.550Z,7.60
2022-09-24T09:14:19.618Z,9.02
2022-09-24T09:16:52.784Z,9.48
2022-09-24T09:19:20.578Z,11.30
2022-09-24T09:21:53.929Z,7.25
2022-09-24T09:24:25.208Z,10.27
2022-09-24T09:26:54.723Z,11.27
2022-09-24T09:29:24.487Z,10.07
2022-09-24T09:31:56.184Z,7.93
2022-09-24T09:34:41.181Z,9.25
2022-09-24T09:37:24.911Z,9.40
2022-09-24T09:39:57.639Z,10.00
2022-09-24T09:42:27.996Z,8.85
2022-09-24T09:44:55.439Z,9.70
2022-09-24T09:47:25.947Z,7.05
2022-09-24T09:49:54.278Z,7.15
2022-09-24T09:52:23.910Z,6.03
2022-09-24T09:54:51.159Z,5.75
2022-09-24T09:57:24.677Z,6.60
2022-09-24T09:59:55.108Z,6.60
2022-09-24T10:02:28.088Z,6.53
2022-09-24T10:04:56.798Z,7.33
2022-09-24T10:07:24.435Z,10.57
2022-09-24T10:10:01.267Z,8.70
2022-09-24T10:12:28.744Z,8.90
2022-09-24T10:15:00.489Z,6.95
2022-09-24T10:17:30.051Z,7.32
2022-09-24T10:19:57.260Z,7.22
2022-09-24T10:22:25.732Z,7.63
2022-09-24T10:24:53.810Z,10.27
2022-09-24T10:27:39.768Z,8.57
2022-09-24T10:30:32.113Z,8.05
2022-09-24T10:33:00.170Z,9.05
2022-09-24T10:35:27.210Z,10.20
2022-09-24T10:37:55.413Z,8.40
2022-09-24T10:40:25.570Z,9.77
2022-09-24T10:42:57.240Z,7.13
2022-09-24T10:45:27.968Z,9.13
2022-09-24T10:48:18.814Z,9.40
2022-09-24T10:51:11.823Z,10.57
2022-09-24T10:53:42.114Z,9.77
2022-09-24T10:56:24.393Z,10.43
2022-09-24T10:59:03.931Z,7.97
2022-09-24T11:01:51.350Z,11.40
2022-09-24T11:04:38.937Z,12.05
2022-09-24T11:07:25.103Z,10.40
2022-09-24T11:10:00.804Z,14.85
2022-09-24T11:12:57.123Z,12.27
2022-09-24T11:15:42.846Z,10.30
2022-09-24T11:18:36.530Z,12.10
2022-09-24T11:21:06.512Z,11.37
2022-09-24T11:23:33.459Z,10.50
2022-09-24T11:26:11.348Z,14.00
2022-09-24T11:28:41.390Z,8.80
2022-09-24T11:31:14.468Z,13.38
2022-09-24T11:34:02.984Z,13.80
2022-09-24T11:36:50.726Z,12.05
2022-09-24T11:39:31.760Z,10.23
2022-09-24T11:42:20.466Z,12.20
2022-09-24T11:44:47.503Z,11.88
2022-09-24T11:47:21.869Z,10.23
2022-09-24T11:50:01.112Z,11.35
2022-09-24T11:52:30.913Z,11.75
2022-09-24T11:55:05.646Z,11.68
2022-09-24T11:57:34.167Z,11.27
2022-09-24T12:00:13.707Z,14.27
2022-09-24T12:02:50.058Z,15.35
2022-09-24T12:05:23.168Z,10.23
2022-09-24T12:07:56.432Z,12.95
2022-09-24T12:10:51.125Z,11.80
2022-09-24T12:13:41.131Z,12.18
2022-09-24T12:16:14.146Z,13.18
2022-09-24T12:18:45.015Z,12.47
2022-09-24T12:21:23.431Z,10.73
2022-09-24T12:23:51.309Z,11.95
2022-09-24T12:26:19.838Z,12.90
2022-09-24T12:29:14.781Z,12.57
2022-09-24T12:32:11.845Z,11.55
2022-09-24T12:34:47.027Z,12.15
2022-09-24T12:37:16.727Z,10.35
2022-09-24T12:40:04.457Z,11.90
2022-09-24T12:42:37.358Z,12.27
2022-09-24T12:45:05.255Z,12.88
2022-09-24T12:47:33.564Z,10.63
2022-09-24T12:50:03.315Z,11.45
2022-09-24T12:52:36.241Z,10.27
2022-09-24T12:55:04.615Z,11.30
2022-09-24T12:57:42.449Z,11.48
2022-09-24T13:00:29.110Z,11.50
2022-09-24T13:02:56.539Z,11.35
2022-09-24T13:05:27.025Z,13.95
2022-09-24T13:07:59.173Z,14.73
2022-09-24T13:10:27.728Z,11.20
2022-09-24T13:12:54.820Z,11.77
2022-09-24T13:15:33.394Z,10.05
2022-09-24T13:18:01.820Z,15.05
2022-09-24T13:20:29.516Z,10.20
2022-09-24T13:23:20.259Z,8.32
2022-09-24T13:25:57.662Z,11.07
2022-09-24T13:28:38.282Z,17.60
2022-09-24T13:31:36.817Z,11.90
2022-09-24T13:34:14.590Z,9.52
2022-09-24T13:36:53.869Z,12.57
2022-09-24T13:39:22.428Z,11.25
2022-09-24T13:41:53.868Z,15.52
2022-09-24T13:44:30.683Z,8.95
2022-09-24T13:47:00.399Z,14.68
2022-09-24T13:49:28.780Z,12.98
2022-09-24T13:52:04.053Z,18.92
2022-09-24T13:54:34.119Z,9.85
2022-09-24T13:57:20.560Z,10.68
2022-09-24T13:59:47.606Z,9.77
2022-09-24T14:02:23.341Z,8.80
2022-09-24T14:04:54.086Z,11.15
2022-09-24T14:07:22.062Z,14.13
2022-09-24T14:09:51.219Z,8.68
2022-09-24T14:12:21.903Z,9.07
2022-09-24T14:14:53.897Z,8.45
2022-09-24T14:17:20.924Z,9.52
2022-09-24T14:19:48.555Z,12.20
2022-09-24T14:22:19.540Z,11.32
2022-09-24T14:24:52.416Z,7.43
2022-09-24T14:27:21.460Z,9.60
2022-09-24T14:29:51.423Z,10.82
2022-09-24T14:32:24.306Z,10.25
2022-09-24T14:35:01.768Z,9.45
2022-09-24T14:37:31.365Z,10.90
2022-09-24T14:40:04.652Z,11.30
2022-09-24T14:42:33.814Z,12.15
2022-09-24T14:45:01.908Z,11.40
2022-09-24T14:47:29.956Z,11.98
2022-09-24T14:49:57.078Z,12.50
2022-09-24T14:52:32.512Z,11.65
2022-09-24T14:55:19.847Z,13.98
2022-09-24T14:57:49.592Z,11.93
2022-09-24T15:00:19.956Z,12.25
2022-09-24T15:02:52.011Z,12.98
2022-09-24T15:05:24.187Z,12.13
2022-09-24T15:07:51.343Z,13.38
2022-09-24T15:10:21.739Z,15.57
2022-09-24T15:12:48.992Z,13.85
2022-09-24T15:15:20.731Z,10.48
2022-09-24T15:17:47.903Z,16.35
2022-09-24T15:20:14.956Z,11.18
2022-09-24T15:22:41.977Z,13.07
2022-09-24T15:25:09.350Z,11.23
2022-09-24T15:27:39.907Z,14.07
2022-09-24T15:30:08.454Z,13.02
2022-09-24T15:32:35.920Z,12.15
2022-09-24T15:35:07.546Z,11.85
2022-09-24T15:37:36.211Z,13.15
2022-09-24T15:40:07.826Z,13.05
2022-09-24T15:42:34.980Z,12.32
2022-09-24T15:45:02.081Z,11.88
2022-09-24T15:47:29.132Z,13.82
2022-09-24T15:49:56.109Z,14.80
2022-09-24T15:52:28.190Z,10.90
2022-09-24T15:54:56.144Z,13.10
2022-09-24T15:57:23.219Z,14.15
2022-09-24T15:59:50.811Z,17.45
2022-09-24T16:02:25.719Z,16.70
2022-09-24T16:04:53.220Z,14.95
2022-09-24T16:07:20.253Z,16.30
2022-09-24T16:09:47.253Z,16.20
2022-09-24T16:12:18.037Z,15.70
2022-09-24T16:14:45.297Z,16.70
2022-09-24T16:17:12.675Z,16.05
2022-09-24T16:19:39.848Z,15.80
2022-09-24T16:22:06.913Z,16.00
2022-09-24T16:24:34.856Z,13.73
2022-09-24T16:27:02.030Z,17.27
2022-09-24T16:29:29.075Z,15.23
2022-09-24T16:31:56.081Z,16.00
2022-09-24T16:34:23.247Z,16.08
2022-09-24T16:36:50.248Z,17.88
2022-09-24T16:39:17.348Z,15.13
2022-09-24T16:41:44.431Z,16.23
2022-09-24T16:44:14.908Z,17.83
2022-09-24T16:46:42.340Z,15.60
2022-09-24T16:49:09.532Z,16.38
2022-09-24T16:51:36.754Z,14.82
2022-09-24T16:54:05.505Z,14.65
2022-09-24T16:56:32.766Z,16.85
2022-09-24T16:58:59.867Z,15.60
2022-09-24T17:01:27.021Z,15.18
2022-09-24T17:03:54.075Z,19.00
2022-09-24T17:06:22.732Z,17.38
2022-09-24T17:09:08.867Z,16.60
2022-09-24T17:11:36.176Z,18.15
2022-09-24T17:14:03.259Z,17.38
2022-09-24T17:16:30.619Z,17.50
2022-09-24T17:18:57.702Z,20.13
2022-09-24T17:21:24.933Z,19.08
2022-09-24T17:23:52.053Z,22.23
2022-09-24T17:26:21.281Z,21.58
2022-09-24T17:28:49.600Z,22.83
2022-09-24T17:31:17.935Z,21.92
2022-09-24T17:33:45.176Z,25.95
2022-09-24T17:36:13.960Z,19.67
2022-09-24T17:38:41.048Z,20.95
2022-09-24T17:41:09.747Z,18.92
2022-09-24T17:43:37.320Z,19.35
2022-09-24T17:46:11.385Z,26.00
2022-09-24T17:48:42.051Z,21.95
2022-09-24T17:51:13.157Z,22.50
2022-09-24T17:53:40.528Z,23.05
2022-09-24T17:56:08.650Z,27.20
2022-09-24T17:58:40.295Z,24.23
2022-09-24T18:01:12.098Z,32.58
2022-09-24T18:03:39.566Z,31.02
2022-09-24T18:06:07.835Z,27.63
2022-09-24T18:08:42.046Z,25.77
2022-09-24T18:11:16.179Z,25.15
2022-09-24T18:13:43.296Z,23.98
2022-09-24T18:16:12.012Z,26.02
2022-09-24T18:18:39.317Z,33.78
2022-09-24T18:21:07.603Z,26.95
2022-09-24T18:23:35.255Z,26.25
2022-09-24T18:26:10.653Z,32.72
2022-09-24T18:28:41.857Z,28.10
2022-09-24T18:31:11.345Z,23.80
2022-09-24T18:33:39.512Z,28.98
2022-09-24T18:36:10.908Z,28.23
2022-09-24T18:38:38.150Z,26.48
2022-09-24T18:41:09.720Z,32.78
2022-09-24T18:43:36.992Z,36.28
2022-09-24T18:46:04.692Z,31.33
2022-09-24T18:48:31.998Z,32.85
2022-09-24T18:50:59.197Z,30.77
2022-09-24T18:53:26.555Z,25.85
2022-09-24T18:55:53.974Z,20.38
2022-09-24T18:58:21.006Z,27.33
2022-09-24T19:00:50.920Z,28.25
2022-09-24T19:03:19.056Z,25.35
2022-09-24T19:05:51.322Z,29.58
2022-09-24T19:08:18.798Z,33.53
2022-09-24T19:10:45.889Z,35.70
2022-09-24T19:13:13.366Z,26.58
2022-09-24T19:15:40.820Z,34.78
2022-09-24T19:18:08.725Z,32.35
2022-09-24T19:20:39.589Z,23.50
2022-09-24T19:23:08.017Z,25.25
2022-09-24T19:25:36.569Z,21.25
2022-09-24T19:28:04.347Z,26.70
2022-09-24T19:30:32.218Z,28.27
2022-09-24T19:32:59.800Z,26.92
2022-09-24T19:35:26.859Z,34.45
2022-09-24T19:37:53.883Z,36.47
2022-09-24T19:40:20.982Z,28.52
2022-09-24T19:42:48.141Z,25.88
2022-09-24T19:45:15.158Z,36.65
2022-09-24T19:47:42.181Z,43.55
2022-09-24T19:50:12.640Z,33.60
2022-09-24T19:52:44.117Z,30.58
2022-09-24T19:55:11.132Z,30.52
2022-09-24T19:57:38.154Z,31.25
2022-09-24T20:00:05.749Z,31.92
2022-09-24T20:02:32.798Z,29.42
2022-09-24T20:04:59.832Z,30.63
2022-09-24T20:07:27.487Z,27.90
2022-09-24T20:09:54.576Z,28.50
2022-09-24T20:12:21.817Z,27.30
2022-09-24T20:14:48.860Z,27.90
2022-09-24T20:17:17.304Z,34.03
2022-09-24T20:19:44.345Z,30.65
2022-09-24T20:22:16.579Z,30.42
2022-09-24T20:24:44.368Z,27.25
2022-09-24T20:27:31.019Z,24.58
2022-09-24T20:29:58.145Z,28.25
2022-09-24T20:32:25.204Z,29.88
2022-09-24T20:34:52.237Z,26.10
2022-09-24T20:37:19.285Z,25.25
2022-09-24T20:39:46.278Z,25.13
2022-09-24T20:42:13.969Z,25.13
2022-09-24T20:44:41.254Z,25.55
2022-09-24T20:47:08.250Z,27.38
2022-09-24T20:49:35.328Z,26.95
2022-09-24T20:52:03.195Z,26.90
2022-09-24T20:54:30.186Z,29.08
2022-09-24T20:56:57.255Z,30.40
2022-09-24T20:59:26.528Z,31.52
2022-09-24T21:01:54.507Z,28.15
2022-09-24T21:04:22.388Z,31.05
2022-09-24T21:06:49.848Z,27.63
2022-09-24T21:09:17.165Z,29.10
2022-09-24T21:11:44.241Z,26.48
2022-09-24T21:14:11.939Z,25.38
2022-09-24T21:16:39.199Z,26.17
2022-09-24T21:19:07.751Z,25.88
2022-09-24T21:21:38.140Z,25.15
2022-09-24T21:24:07.121Z,21.38
2022-09-24T21:26:35.031Z,24.15
2022-09-24T21:29:03.751Z,23.08
2022-09-24T21:31:32.080Z,21.98
2022-09-24T21:33:59.442Z,20.98
2022-09-24T21:36:29.124Z,22.13
2022-09-24T21:38:57.743Z,20.33
2022-09-24T21:41:26.241Z,18.88
2022-09-24T21:43:53.543Z,17.48
2022-09-24T21:46:20.737Z,17.35
2022-09-24T21:48:47.915Z,17.95
2022-09-24T21:51:21.218Z,18.25
2022-09-24T21:53:49.365Z,18.88
2022-09-24T21:56:18.762Z,18.50
2022-09-24T21:58:46.730Z,17.98
2022-09-24T22:01:18.195Z,19.02
2022-09-24T22:03:45.414Z,18.60
2022-09-24T22:06:12.993Z,15.63
2022-09-24T22:08:40.125Z,16.35
2022-09-24T22:11:10.862Z,16.48
2022-09-24T22:13:38.660Z,17.63
2022-09-24T22:16:06.897Z,15.93
2022-09-24T22:18:33.974Z,17.77
2022-09-24T22:21:09.283Z,20.35
2022-09-24T22:23:36.528Z,16.40
2022-09-24T22:26:03.540Z,15.85
2022-09-24T22:28:30.735Z,16.90
2022-09-24T22:30:59.284Z,17.40
2022-09-24T22:33:48.108Z,19.63
2022-09-24T22:36:15.370Z,18.23
2022-09-24T22:38:42.417Z,16.75
2022-09-24T22:41:11.062Z,20.65
2022-09-24T22:43:38.687Z,17.52
2022-09-24T22:46:07.196Z,18.83
2022-09-24T22:48:34.586Z,18.90
2022-09-24T22:51:02.053Z,19.35
2022-09-24T22:53:29.297Z,20.10
2022-09-24T22:56:08.809Z,19.80
2022-09-24T22:58:37.126Z,18.98
2022-09-24T23:01:11.762Z,16.95
2022-09-24T23:03:39.001Z,18.95
2022-09-24T23:06:06.897Z,17.80
2022-09-24T23:08:34.641Z,18.60
2022-09-24T23:11:10.901Z,18.38
2022-09-24T23:13:38.674Z,17.25
2022-09-24T23:16:13.299Z,18.92
2022-09-24T23:18:40.908Z,18.48
2022-09-24T23:21:08.980Z,17.00
2022-09-24T23:23:36.423Z,19.50
2022-09-24T23:26:16.535Z,17.20
2022-09-24T23:28:44.548Z,18.13
2022-09-24T23:31:13.357Z,18.20
2022-09-24T23:33:41.336Z,17.83
2022-09-24T23:36:09.544Z,17.30
2022-09-24T23:38:36.563Z,17.02
2022-09-24T23:41:05.098Z,18.30
2022-09-24T23:43:32.602Z,16.42
2022-09-24T23:45:59.616Z,19.85
2022-09-24T23:48:26.673Z,18.35
2022-09-24T23:50:53.701Z,16.48
2022-09-24T23:53:21.870Z,16.70
2022-09-24T23:55:49.856Z,17.40
2022-09-24T23:58:19.060Z,16.63
